Time;durP1;ratioP1;P1;durP2;ratioP2;P2;SDS_P1;SDS_P2;PMS_P1;PMS_P2;Temp;Humidity;BMP_temperature;BMP_pressure;BME280_temperature;BME280_humidity;BME280_pressure;Samples;Min_cycle;Max_cycle;Signal;HPM_P1;HPM_P2
2022/03/05 00:00:24;;;;;;;5.13;4.37;;;;;;;;;;5053284;28;20434;-56
2022/03/05 00:02:50;;;;;;;6.30;4.57;;;;;;;;;;5052985;28;21029;-56
2022/03/05 00:05:16;;;;;;;7.40;5.33;;;;;;;;;;5053479;28;20437;-56
2022/03/05 00:07:42;;;;;;;7.40;5.53;;;;;;;;;;5053087;28;20526;-56
2022/03/05 00:10:10;;;;;;;7.80;5.30;;;;;;;;;;5053054;28;20921;-56
2022/03/05 00:12:36;;;;;;;8.23;5.40;;;;;;;;;;5052781;28;21045;-56
2022/03/05 00:15:02;;;;;;;8.17;5.30;;;;;;;;;;5050965;28;20522;-55
2022/03/05 00:17:28;;;;;;;5.90;4.70;;;;;;;;;;5053037;28;20227;-54
2022/03/05 00:19:54;;;;;;;7.43;5.40;;;;;;;;;;5052938;28;20489;-55
2022/03/05 00:22:20;;;;;;;6.77;5.40;;;;;;;;;;5052780;28;20479;-55
2022/03/05 00:24:46;;;;;;;9.03;4.70;;;;;;;;;;5052650;28;20216;-55
2022/03/05 00:27:14;;;;;;;5.73;4.60;;;;;;;;;;5052712;28;20502;-53
2022/03/05 00:29:40;;;;;;;5.83;4.73;;;;;;;;;;5052222;28;20867;-55
2022/03/05 00:32:06;;;;;;;7.23;4.63;;;;;;;;;;5052389;28;21015;-55
2022/03/05 00:34:32;;;;;;;7.00;4.60;;;;;;;;;;5052471;28;20450;-55
2022/03/05 00:36:58;;;;;;;5.57;4.30;;;;;;;;;;5052789;28;20933;-55
2022/03/05 00:39:24;;;;;;;4.93;4.03;;;;;;;;;;5052492;28;20200;-56
2022/03/05 00:41:50;;;;;;;5.97;4.57;;;;;;;;;;5052393;28;21007;-55
2022/03/05 00:44:17;;;;;;;5.30;4.20;;;;;;;;;;5052423;28;20236;-55
2022/03/05 00:46:43;;;;;;;4.60;3.90;;;;;;;;;;5052037;28;20200;-56
2022/03/05 00:49:09;;;;;;;5.77;4.70;;;;;;;;;;5051844;28;20535;-57
2022/03/05 00:51:35;;;;;;;6.00;4.20;;;;;;;;;;5052002;28;20196;-56
2022/03/05 00:54:01;;;;;;;5.43;4.37;;;;;;;;;;5052366;28;20439;-56
2022/03/05 00:56:28;;;;;;;5.70;4.43;;;;;;;;;;5052194;28;20212;-56
2022/03/05 00:58:54;;;;;;;5.13;4.27;;;;;;;;;;5052319;28;20439;-56
2022/03/05 01:01:22;;;;;;;5.87;4.30;;;;;;;;;;5051914;28;20506;-56
2022/03/05 01:03:48;;;;;;;5.67;4.20;;;;;;;;;;5051683;28;20309;-56
2022/03/05 01:06:14;;;;;;;6.07;4.40;;;;;;;;;;5052204;28;20437;-56
2022/03/05 01:08:40;;;;;;;7.10;4.10;;;;;;;;;;5051910;28;20526;-56
2022/03/05 01:11:08;;;;;;;6.27;4.60;;;;;;;;;;5051956;28;20257;-56
2022/03/05 01:13:34;;;;;;;5.73;5.00;;;;;;;;;;5051734;28;21106;-56
2022/03/05 01:16:00;;;;;;;4.47;4.07;;;;;;;;;;5051928;28;20442;-56
2022/03/05 01:18:28;;;;;;;6.87;4.70;;;;;;;;;;5051876;28;20200;-56
2022/03/05 01:20:54;;;;;;;5.07;4.37;;;;;;;;;;5051782;28;20450;-57
2022/03/05 01:23:20;;;;;;;5.23;4.20;;;;;;;;;;5051649;28;20495;-56
2022/03/05 01:25:46;;;;;;;5.07;4.00;;;;;;;;;;5051628;28;20486;-56
2022/03/05 01:28:12;;;;;;;4.80;4.13;;;;;;;;;;5051858;28;20235;-56
2022/03/05 01:30:38;;;;;;;4.67;3.77;;;;;;;;;;5051529;28;21306;-56
2022/03/05 01:33:05;;;;;;;6.03;4.13;;;;;;;;;;5051620;28;20514;-57
2022/03/05 01:35:32;;;;;;;5.47;4.27;;;;;;;;;;5051786;28;20526;-56
2022/03/05 01:37:58;;;;;;;5.30;4.40;;;;;;;;;;5051743;28;20457;-56
2022/03/05 01:40:24;;;;;;;7.67;4.47;;;;;;;;;;5051450;28;20538;-56
2022/03/05 01:42:50;;;;;;;6.63;4.37;;;;;;;;;;5051226;28;20309;-56
2022/03/05 01:45:16;;;;;;;6.73;4.23;;;;;;;;;;5051568;28;20941;-57
2022/03/05 01:47:42;;;;;;;6.73;4.30;;;;;;;;;;5051589;28;20207;-56
2022/03/05 01:50:08;;;;;;;5.57;4.47;;;;;;;;;;5051571;28;20546;-56
2022/03/05 01:52:36;;;;;;;7.97;4.70;;;;;;;;;;5051374;28;20434;-56
2022/03/05 01:55:02;;;;;;;4.70;4.20;;;;;;;;;;5051425;28;20488;-57
2022/03/05 01:57:28;;;;;;;6.87;4.37;;;;;;;;;;5052434;28;20958;-56
2022/03/05 01:59:55;;;;;;;6.03;4.93;;;;;;;;;;5055445;28;20514;-56
2022/03/05 02:02:21;;;;;;;6.27;4.90;;;;;;;;;;5055471;28;20302;-55
2022/03/05 02:04:47;;;;;;;6.80;4.70;;;;;;;;;;5055501;28;20948;-55
2022/03/05 02:07:14;;;;;;;5.63;4.50;;;;;;;;;;5055492;28;20208;-56
2022/03/05 02:09:41;;;;;;;5.93;4.37;;;;;;;;;;5055448;28;20204;-56
2022/03/05 02:12:08;;;;;;;6.20;4.90;;;;;;;;;;5055251;28;20446;-56
2022/03/05 02:14:33;;;;;;;4.70;4.20;;;;;;;;;;5055134;28;20492;-56
2022/03/05 02:16:59;;;;;;;6.53;5.00;;;;;;;;;;5055476;28;20833;-56
2022/03/05 02:19:25;;;;;;;7.13;4.87;;;;;;;;;;5055116;28;20200;-56
2022/03/05 02:21:53;;;;;;;6.00;4.73;;;;;;;;;;5055092;28;20192;-56
2022/03/05 02:24:31;;;;;;;7.83;5.10;;;;;;;;;;5054702;28;20232;-56
2022/03/05 02:26:57;;;;;;;5.63;4.80;;;;;;;;;;5055030;28;20474;-56
2022/03/05 02:29:23;;;;;;;6.23;5.17;;;;;;;;;;5055024;28;20500;-56
2022/03/05 02:31:49;;;;;;;6.93;5.10;;;;;;;;;;5054831;28;20911;-56
2022/03/05 02:34:16;;;;;;;7.43;5.60;;;;;;;;;;5054766;28;20450;-56
2022/03/05 02:36:42;;;;;;;6.70;5.23;;;;;;;;;;5054879;28;20775;-56
2022/03/05 02:39:09;;;;;;;7.30;5.23;;;;;;;;;;5054905;28;20448;-56
2022/03/05 02:41:35;;;;;;;6.73;5.30;;;;;;;;;;5054709;28;20793;-56
2022/03/05 02:44:01;;;;;;;6.73;5.27;;;;;;;;;;5054703;28;20992;-56
2022/03/05 02:46:29;;;;;;;7.27;5.23;;;;;;;;;;5054751;28;20434;-56
2022/03/05 02:48:55;;;;;;;6.40;5.50;;;;;;;;;;5054565;28;20921;-56
2022/03/05 02:51:21;;;;;;;7.23;5.63;;;;;;;;;;5054633;28;20537;-56
2022/03/05 02:53:47;;;;;;;5.70;5.03;;;;;;;;;;5054329;28;20435;-56
2022/03/05 02:56:15;;;;;;;8.80;5.57;;;;;;;;;;5054630;28;20430;-56
2022/03/05 02:58:41;;;;;;;6.97;5.20;;;;;;;;;;5054451;28;20450;-55
2022/03/05 03:01:07;;;;;;;6.20;5.60;;;;;;;;;;5054389;28;20426;-56
2022/03/05 03:03:33;;;;;;;6.30;5.10;;;;;;;;;;5054245;28;20224;-56
2022/03/05 03:05:59;;;;;;;7.63;5.67;;;;;;;;;;5054602;28;20431;-56
2022/03/05 03:08:25;;;;;;;6.67;5.70;;;;;;;;;;5054224;28;20442;-56
2022/03/05 03:10:51;;;;;;;8.10;5.50;;;;;;;;;;5054103;28;20988;-56
2022/03/05 03:13:18;;;;;;;8.50;6.40;;;;;;;;;;5054318;28;20204;-56
2022/03/05 03:15:44;;;;;;;8.43;5.73;;;;;;;;;;5054230;28;20525;-56
2022/03/05 03:18:10;;;;;;;7.63;5.40;;;;;;;;;;5054156;28;20443;-55
2022/03/05 03:20:36;;;;;;;8.53;5.03;;;;;;;;;;5053881;28;20443;-54
2022/03/05 03:23:02;;;;;;;7.70;5.60;;;;;;;;;;5053987;28;20240;-54
2022/03/05 03:25:28;;;;;;;6.37;5.50;;;;;;;;;;5053893;28;20208;-55
2022/03/05 03:27:54;;;;;;;8.83;6.10;;;;;;;;;;5053930;28;20558;-55
2022/03/05 03:30:21;;;;;;;5.97;5.33;;;;;;;;;;5053469;28;20441;-55
2022/03/05 03:32:47;;;;;;;8.30;5.40;;;;;;;;;;5053199;28;20457;-55
2022/03/05 03:35:14;;;;;;;8.03;5.57;;;;;;;;;;5053583;28;20925;-54
2022/03/05 03:37:41;;;;;;;8.67;5.60;;;;;;;;;;5052960;28;20219;-55
2022/03/05 03:40:08;;;;;;;6.47;5.20;;;;;;;;;;5053179;28;20435;-55
2022/03/05 03:42:34;;;;;;;6.43;5.33;;;;;;;;;;5053110;28;20509;-55
2022/03/05 03:45:00;;;;;;;8.10;5.70;;;;;;;;;;5053218;28;20510;-55
2022/03/05 03:47:28;;;;;;;7.43;5.50;;;;;;;;;;5053076;28;20439;-55
2022/03/05 03:49:54;;;;;;;8.30;5.40;;;;;;;;;;5053061;28;20447;-55
2022/03/05 03:52:20;;;;;;;6.37;5.23;;;;;;;;;;5051687;28;20500;-55
2022/03/05 03:54:47;;;;;;;6.43;5.03;;;;;;;;;;5053068;28;20435;-55
2022/03/05 03:57:13;;;;;;;5.80;5.10;;;;;;;;;;5053235;28;20439;-55
2022/03/05 03:59:39;;;;;;;6.47;5.40;;;;;;;;;;5053132;28;20451;-55
2022/03/05 04:02:05;;;;;;;7.57;5.20;;;;;;;;;;5053249;28;20435;-54
2022/03/05 04:04:32;;;;;;;7.33;5.30;;;;;;;;;;5053125;28;20471;-55
2022/03/05 04:09:43;;;;;;;6.70;5.37;;;;;;;;;;5053112;28;20493;-55
2022/03/05 04:12:09;;;;;;;7.10;5.50;;;;;;;;;;5052755;28;20514;-55
2022/03/05 04:14:35;;;;;;;7.63;5.83;;;;;;;;;;5052520;28;20500;-55
2022/03/05 04:17:01;;;;;;;6.23;4.77;;;;;;;;;;5052839;28;20899;-55
2022/03/05 04:19:27;;;;;;;6.23;5.10;;;;;;;;;;5052837;28;20586;-55
2022/03/05 04:21:55;;;;;;;6.63;5.10;;;;;;;;;;5051963;28;20814;-55
2022/03/05 04:24:21;;;;;;;6.23;5.40;;;;;;;;;;5052018;28;20474;-54
2022/03/05 04:26:47;;;;;;;7.90;5.77;;;;;;;;;;5051832;28;20501;-55
2022/03/05 04:29:13;;;;;;;7.63;5.57;;;;;;;;;;5052440;28;20189;-54
2022/03/05 04:31:39;;;;;;;6.10;5.50;;;;;;;;;;5052090;28;20200;-54
2022/03/05 04:34:05;;;;;;;5.13;4.63;;;;;;;;;;5052324;28;20204;-55
2022/03/05 04:36:32;;;;;;;6.47;5.33;;;;;;;;;;5052376;28;20200;-55
2022/03/05 04:38:59;;;;;;;7.63;5.03;;;;;;;;;;5052312;28;20447;-55
2022/03/05 04:41:25;;;;;;;6.03;5.20;;;;;;;;;;5052162;28;20485;-54
2022/03/05 04:43:51;;;;;;;6.83;5.00;;;;;;;;;;5051833;28;20851;-55
2022/03/05 04:46:17;;;;;;;6.53;5.27;;;;;;;;;;5051883;28;20941;-55
2022/03/05 04:48:43;;;;;;;6.43;4.90;;;;;;;;;;5051851;28;20270;-55
2022/03/05 04:51:09;;;;;;;9.87;4.77;;;;;;;;;;5051691;28;20287;-56
2022/03/05 04:53:35;;;;;;;6.73;4.90;;;;;;;;;;5051503;28;20449;-56
2022/03/05 04:56:03;;;;;;;6.03;4.60;;;;;;;;;;5051666;28;20441;-56
2022/03/05 04:58:29;;;;;;;5.30;4.57;;;;;;;;;;5051567;28;20925;-56
2022/03/05 05:00:55;;;;;;;7.00;5.23;;;;;;;;;;5051300;28;20461;-56
2022/03/05 05:03:21;;;;;;;7.70;5.50;;;;;;;;;;5051562;28;20282;-56
2022/03/05 05:05:47;;;;;;;5.40;4.47;;;;;;;;;;5051585;28;20469;-56
2022/03/05 05:08:13;;;;;;;5.20;4.70;;;;;;;;;;5051688;28;20298;-56
2022/03/05 05:10:39;;;;;;;5.93;4.50;;;;;;;;;;5051371;28;20200;-55
2022/03/05 05:13:06;;;;;;;6.23;4.97;;;;;;;;;;5051468;28;21028;-55
2022/03/05 05:15:32;;;;;;;7.03;5.07;;;;;;;;;;5051570;28;20208;-56
2022/03/05 05:18:00;;;;;;;7.47;5.23;;;;;;;;;;5051434;28;20508;-56
2022/03/05 05:20:26;;;;;;;6.90;5.37;;;;;;;;;;5051285;28;20439;-56
2022/03/05 05:22:52;;;;;;;6.33;4.70;;;;;;;;;;5051303;28;20976;-56
2022/03/05 05:25:18;;;;;;;8.37;4.90;;;;;;;;;;5050967;28;21017;-56
2022/03/05 05:27:45;;;;;;;6.23;5.00;;;;;;;;;;5051356;28;20514;-56
2022/03/05 05:30:12;;;;;;;6.47;5.10;;;;;;;;;;5051233;28;20200;-56
2022/03/05 05:32:38;;;;;;;7.10;4.57;;;;;;;;;;5050109;28;20925;-55
2022/03/05 05:35:05;;;;;;;5.93;5.10;;;;;;;;;;5051223;28;20506;-55
2022/03/05 05:37:31;;;;;;;5.80;5.00;;;;;;;;;;5051198;28;20486;-56
2022/03/05 05:39:57;;;;;;;6.17;4.97;;;;;;;;;;5051214;28;20537;-56
2022/03/05 05:42:23;;;;;;;8.30;5.27;;;;;;;;;;5050952;28;20535;-56
2022/03/05 05:44:49;;;;;;;6.47;5.10;;;;;;;;;;5050778;28;20450;-56
2022/03/05 05:47:16;;;;;;;7.87;5.93;;;;;;;;;;5051117;28;20439;-57
2022/03/05 05:49:42;;;;;;;9.80;5.57;;;;;;;;;;5050943;28;20431;-55
2022/03/05 05:52:08;;;;;;;6.47;5.50;;;;;;;;;;5051097;28;20493;-54
2022/03/05 05:54:34;;;;;;;7.53;5.40;;;;;;;;;;5051148;28;20192;-54
2022/03/05 05:57:00;;;;;;;7.37;5.10;;;;;;;;;;5050963;28;20442;-54
2022/03/05 05:59:26;;;;;;;7.97;5.20;;;;;;;;;;5050859;28;20449;-54
2022/03/05 06:01:53;;;;;;;7.50;5.37;;;;;;;;;;5050895;28;20748;-55
2022/03/05 06:04:20;;;;;;;6.80;5.63;;;;;;;;;;5050907;28;20470;-55
2022/03/05 06:06:46;;;;;;;7.37;5.97;;;;;;;;;;5050913;28;20806;-55
2022/03/05 06:09:12;;;;;;;7.63;5.07;;;;;;;;;;5051083;28;20461;-56
2022/03/05 06:11:38;;;;;;;6.63;5.20;;;;;;;;;;5050948;28;20430;-56
2022/03/05 06:14:06;;;;;;;7.80;5.53;;;;;;;;;;5050737;28;20613;-56
2022/03/05 06:16:32;;;;;;;6.03;5.37;;;;;;;;;;5050829;28;20434;-56
2022/03/05 06:18:58;;;;;;;6.57;5.27;;;;;;;;;;5050953;28;20455;-56
2022/03/05 06:21:25;;;;;;;7.40;5.50;;;;;;;;;;5050756;28;20983;-56
2022/03/05 06:23:51;;;;;;;6.73;5.20;;;;;;;;;;5050471;28;20240;-56
2022/03/05 06:26:17;;;;;;;6.90;5.60;;;;;;;;;;5050655;28;20470;-56
2022/03/05 06:28:43;;;;;;;6.43;5.73;;;;;;;;;;5050654;28;20200;-56
2022/03/05 06:31:09;;;;;;;8.37;5.77;;;;;;;;;;5050692;28;20204;-56
2022/03/05 06:33:35;;;;;;;8.00;5.43;;;;;;;;;;5050798;28;20212;-56
2022/03/05 06:36:01;;;;;;;9.50;6.03;;;;;;;;;;5050729;28;20857;-56
2022/03/05 06:38:28;;;;;;;8.17;6.10;;;;;;;;;;5050747;28;20207;-56
2022/03/05 06:40:54;;;;;;;8.33;5.37;;;;;;;;;;5050334;28;20809;-56
2022/03/05 06:43:20;;;;;;;7.97;5.57;;;;;;;;;;5050867;28;21018;-56
2022/03/05 06:45:46;;;;;;;6.23;5.63;;;;;;;;;;5054345;28;20433;-56
2022/03/05 06:48:12;;;;;;;8.13;6.23;;;;;;;;;;5054366;28;20439;-57
2022/03/05 06:50:38;;;;;;;7.30;5.57;;;;;;;;;;5054103;28;20208;-55
2022/03/05 06:53:05;;;;;;;6.73;5.70;;;;;;;;;;5054238;28;20430;-55
2022/03/05 06:55:33;;;;;;;7.63;5.47;;;;;;;;;;5054304;28;20466;-55
2022/03/05 06:57:59;;;;;;;9.97;5.57;;;;;;;;;;5054362;28;20522;-56
2022/03/05 07:00:25;;;;;;;9.33;6.60;;;;;;;;;;5053990;28;20521;-56
2022/03/05 07:02:51;;;;;;;8.93;5.87;;;;;;;;;;5053991;28;20439;-55
2022/03/05 07:05:17;;;;;;;6.43;5.70;;;;;;;;;;5054137;28;20222;-55
2022/03/05 07:07:43;;;;;;;9.17;6.70;;;;;;;;;;5053883;28;20439;-55
2022/03/05 07:10:10;;;;;;;7.53;5.87;;;;;;;;;;5054063;28;20204;-56
2022/03/05 07:12:38;;;;;;;8.17;5.97;;;;;;;;;;5053858;28;20492;-55
2022/03/05 07:15:04;;;;;;;8.13;6.00;;;;;;;;;;5053935;28;20822;-55
2022/03/05 07:17:30;;;;;;;9.60;6.27;;;;;;;;;;5054079;28;20434;-55
2022/03/05 07:19:56;;;;;;;7.00;5.97;;;;;;;;;;5053670;28;20798;-56
2022/03/05 07:22:22;;;;;;;8.43;6.67;;;;;;;;;;5053624;28;20785;-56
2022/03/05 07:24:49;;;;;;;9.00;5.67;;;;;;;;;;5053428;28;20540;-54
2022/03/05 07:27:15;;;;;;;7.73;6.13;;;;;;;;;;5053729;28;20554;-55
2022/03/05 07:29:43;;;;;;;7.93;6.27;;;;;;;;;;5053483;28;20881;-56
2022/03/05 07:32:09;;;;;;;7.50;6.70;;;;;;;;;;5053533;28;20496;-55
2022/03/05 07:34:35;;;;;;;7.73;6.47;;;;;;;;;;5053507;28;20735;-56
2022/03/05 07:37:01;;;;;;;7.27;6.37;;;;;;;;;;5053186;28;20778;-56
2022/03/05 07:39:28;;;;;;;7.80;6.17;;;;;;;;;;5053573;28;20513;-55
2022/03/05 07:41:54;;;;;;;6.97;6.13;;;;;;;;;;5053288;28;20430;-56
2022/03/05 07:44:20;;;;;;;9.17;6.97;;;;;;;;;;5053250;28;20470;-56
2022/03/05 07:46:48;;;;;;;6.80;6.10;;;;;;;;;;5053128;28;20928;-56
2022/03/05 07:49:14;;;;;;;6.53;5.90;;;;;;;;;;5053483;28;20446;-56
2022/03/05 07:51:40;;;;;;;8.27;6.73;;;;;;;;;;5053105;28;20443;-55
2022/03/05 07:54:06;;;;;;;9.73;6.67;;;;;;;;;;5053212;28;20447;-53
2022/03/05 07:56:32;;;;;;;7.50;6.70;;;;;;;;;;5052265;28;20431;-54
2022/03/05 07:58:58;;;;;;;9.37;6.53;;;;;;;;;;5052972;28;20447;-53
2022/03/05 08:01:24;;;;;;;11.03;6.33;;;;;;;;;;5053071;28;20438;-54
2022/03/05 08:03:52;;;;;;;8.40;6.60;;;;;;;;;;5052757;28;20482;-54
2022/03/05 08:06:18;;;;;;;9.67;7.57;;;;;;;;;;5053123;28;20283;-53
2022/03/05 08:08:44;;;;;;;9.77;6.30;;;;;;;;;;5053183;28;21024;-53
2022/03/05 08:11:11;;;;;;;12.13;6.33;;;;;;;;;;5052798;28;20613;-53
2022/03/05 08:13:37;;;;;;;11.13;6.73;;;;;;;;;;5052654;28;20442;-54
2022/03/05 08:16:03;;;;;;;8.97;6.83;;;;;;;;;;5052734;28;20521;-51
2022/03/05 08:18:30;;;;;;;8.43;6.60;;;;;;;;;;5052851;28;20434;-53
2022/03/05 08:20:57;;;;;;;10.03;6.60;;;;;;;;;;5052709;28;20514;-55
2022/03/05 08:23:23;;;;;;;7.33;6.47;;;;;;;;;;5052392;28;20493;-58
2022/03/05 08:25:49;;;;;;;7.23;6.27;;;;;;;;;;5052232;28;20478;-54
2022/03/05 08:28:17;;;;;;;7.27;5.90;;;;;;;;;;5052639;28;20675;-54
2022/03/05 08:30:43;;;;;;;7.77;6.07;;;;;;;;;;5052568;28;20200;-55
2022/03/05 08:33:09;;;;;;;7.53;6.00;;;;;;;;;;5052413;28;20793;-56
2022/03/05 08:35:36;;;;;;;7.63;5.90;;;;;;;;;;5052417;28;20443;-55
2022/03/05 08:38:03;;;;;;;6.63;5.33;;;;;;;;;;5052399;28;20291;-55
2022/03/05 08:40:29;;;;;;;7.77;5.53;;;;;;;;;;5052531;28;20489;-56
2022/03/05 08:42:55;;;;;;;7.87;5.90;;;;;;;;;;5051971;28;20812;-56
2022/03/05 08:45:21;;;;;;;6.57;5.87;;;;;;;;;;5052121;28;20430;-58
2022/03/05 08:47:47;;;;;;;10.07;6.13;;;;;;;;;;5052151;28;20196;-56
2022/03/05 08:50:13;;;;;;;7.40;5.53;;;;;;;;;;5052099;28;20218;-55
2022/03/05 08:52:39;;;;;;;7.90;5.67;;;;;;;;;;5051936;28;20435;-56
2022/03/05 08:55:08;;;;;;;11.90;6.27;;;;;;;;;;5051903;28;20196;-58
2022/03/05 08:57:34;;;;;;;8.40;5.80;;;;;;;;;;5051865;28;20448;-57
2022/03/05 09:00:01;;;;;;;17.00;5.70;;;;;;;;;;5051949;28;20467;-57
2022/03/05 09:02:27;;;;;;;8.33;6.47;;;;;;;;;;5051676;28;20431;-55
2022/03/05 09:04:53;;;;;;;6.23;5.43;;;;;;;;;;5051648;28;20600;-56
2022/03/05 09:07:19;;;;;;;8.47;6.13;;;;;;;;;;5051400;28;20445;-58
2022/03/05 09:09:45;;;;;;;7.13;5.80;;;;;;;;;;5051523;28;20837;-56
2022/03/05 09:12:12;;;;;;;7.27;5.83;;;;;;;;;;5051702;28;20488;-57
2022/03/05 09:14:38;;;;;;;7.97;5.10;;;;;;;;;;5051489;28;20223;-57
2022/03/05 09:17:04;;;;;;;7.73;4.93;;;;;;;;;;5051355;28;20918;-58
2022/03/05 09:19:30;;;;;;;8.77;5.27;;;;;;;;;;5051836;28;20204;-57
2022/03/05 09:21:56;;;;;;;5.23;4.20;;;;;;;;;;5049935;28;20260;-57
2022/03/05 09:24:22;;;;;;;6.50;4.50;;;;;;;;;;5051689;28;20231;-56
2022/03/05 09:26:48;;;;;;;5.07;4.17;;;;;;;;;;5051129;28;20257;-58
2022/03/05 09:29:16;;;;;;;6.77;4.30;;;;;;;;;;5049787;28;20218;-56
2022/03/05 09:31:42;;;;;;;6.63;4.30;;;;;;;;;;5050304;28;20202;-56
2022/03/05 09:34:08;;;;;;;6.17;4.67;;;;;;;;;;5051155;28;20192;-56
2022/03/05 09:36:34;;;;;;;4.40;3.93;;;;;;;;;;5051092;28;20207;-57
2022/03/05 09:39:02;;;;;;;4.43;3.87;;;;;;;;;;5051137;28;20204;-56
2022/03/05 09:41:28;;;;;;;5.97;4.20;;;;;;;;;;5051238;28;20200;-57
2022/03/05 09:43:54;;;;;;;5.13;4.60;;;;;;;;;;5050691;28;20226;-58
2022/03/05 09:46:22;;;;;;;7.77;4.40;;;;;;;;;;5050967;28;20196;-58
2022/03/05 09:48:50;;;;;;;5.53;4.40;;;;;;;;;;5050751;28;20275;-59
2022/03/05 09:51:16;;;;;;;6.00;4.43;;;;;;;;;;5051140;28;20658;-56
2022/03/05 09:53:43;;;;;;;6.03;4.77;;;;;;;;;;5050921;28;20208;-56
2022/03/05 09:56:09;;;;;;;6.40;4.90;;;;;;;;;;5051077;28;20200;-56
2022/03/05 09:58:35;;;;;;;7.30;5.03;;;;;;;;;;5050619;28;20539;-56
2022/03/05 10:01:02;;;;;;;6.00;4.90;;;;;;;;;;5050838;28;20204;-57
2022/03/05 10:03:30;;;;;;;6.90;5.90;;;;;;;;;;5050928;28;20215;-57
2022/03/05 10:06:13;;;;;;;6.63;5.37;;;;;;;;;;5050815;28;20200;-56
2022/03/05 10:08:39;;;;;;;7.03;5.83;;;;;;;;;;5050358;28;20200;-57
2022/03/05 10:11:09;;;;;;;7.07;5.60;;;;;;;;;;5050656;28;20210;-56
2022/03/05 10:13:35;;;;;;;8.60;5.77;;;;;;;;;;5050412;28;20272;-56
2022/03/05 10:16:03;;;;;;;7.83;5.40;;;;;;;;;;5048937;28;20258;-57
2022/03/05 10:18:32;;;;;;;6.17;4.97;;;;;;;;;;5052048;28;20199;-56
2022/03/05 10:20:59;;;;;;;6.60;5.93;;;;;;;;;;5054909;28;20250;-57
2022/03/05 10:23:25;;;;;;;11.93;7.23;;;;;;;;;;5054779;28;20235;-57
2022/03/05 10:25:52;;;;;;;8.43;5.90;;;;;;;;;;5054663;28;20602;-57
2022/03/05 10:28:19;;;;;;;13.73;5.50;;;;;;;;;;5054992;28;20204;-57
2022/03/05 10:30:47;;;;;;;7.27;5.00;;;;;;;;;;5055011;28;20228;-58
2022/03/05 10:33:31;;;;;;;7.70;5.67;;;;;;;;;;5055005;28;20203;-57
2022/03/05 10:36:00;;;;;;;7.40;5.17;;;;;;;;;;5054953;28;20200;-56
2022/03/05 10:38:41;;;;;;;6.93;4.80;;;;;;;;;;5054728;28;20200;-57
2022/03/05 10:41:07;;;;;;;6.67;5.57;;;;;;;;;;5054659;28;20295;-57
2022/03/05 10:43:33;;;;;;;5.50;4.87;;;;;;;;;;5054598;28;20233;-57
2022/03/05 10:45:59;;;;;;;9.23;5.43;;;;;;;;;;5054545;28;20200;-57
2022/03/05 10:48:26;;;;;;;5.97;4.97;;;;;;;;;;5054511;28;20204;-58
2022/03/05 10:50:55;;;;;;;6.37;4.87;;;;;;;;;;5054577;28;20246;-57
2022/03/05 10:53:34;;;;;;;6.87;5.60;;;;;;;;;;5054656;28;20196;-56
2022/03/05 10:56:19;;;;;;;6.83;5.30;;;;;;;;;;5054591;28;20252;-58
2022/03/05 10:58:56;;;;;;;6.53;4.90;;;;;;;;;;5054364;28;20196;-59
2022/03/05 11:01:22;;;;;;;7.97;5.30;;;;;;;;;;5054491;28;20202;-58
2022/03/05 11:03:49;;;;;;;6.77;5.43;;;;;;;;;;5054120;28;20224;-57
2022/03/05 11:06:15;;;;;;;8.80;5.97;;;;;;;;;;5054117;28;20195;-57
2022/03/05 11:08:43;;;;;;;8.23;5.53;;;;;;;;;;5053889;28;20236;-57
2022/03/05 11:11:09;;;;;;;5.47;4.77;;;;;;;;;;5053916;28;20204;-57
2022/03/05 11:13:35;;;;;;;6.80;5.77;;;;;;;;;;5053738;28;20296;-57
2022/03/05 11:16:02;;;;;;;6.20;4.97;;;;;;;;;;5053784;28;20234;-58
2022/03/05 11:18:28;;;;;;;11.20;5.90;;;;;;;;;;5053907;28;20283;-57
2022/03/05 11:20:55;;;;;;;7.70;5.97;;;;;;;;;;5053524;28;20200;-58
2022/03/05 11:23:21;;;;;;;6.67;5.70;;;;;;;;;;5053461;28;20224;-57
2022/03/05 11:25:51;;;;;;;7.60;5.60;;;;;;;;;;5053131;28;20239;-57
2022/03/05 11:28:18;;;;;;;8.77;6.33;;;;;;;;;;5053535;28;20204;-57
2022/03/05 11:30:45;;;;;;;7.10;6.30;;;;;;;;;;5052116;28;20207;-56
2022/03/05 11:33:11;;;;;;;7.67;5.90;;;;;;;;;;5053307;28;20624;-58
2022/03/05 11:35:43;;;;;;;6.93;5.67;;;;;;;;;;5053160;28;20559;-57
2022/03/05 11:38:30;;;;;;;7.27;5.90;;;;;;;;;;5053306;28;20199;-57
2022/03/05 11:40:58;;;;;;;6.93;6.13;;;;;;;;;;5053100;28;20238;-57
2022/03/05 11:43:25;;;;;;;6.43;5.60;;;;;;;;;;5053447;28;20223;-57
2022/03/05 11:45:56;;;;;;;7.67;6.13;;;;;;;;;;5053004;28;20843;-58
2022/03/05 11:48:29;;;;;;;11.33;6.37;;;;;;;;;;5053348;28;20765;-56
2022/03/05 11:50:56;;;;;;;8.50;5.77;;;;;;;;;;5053355;28;20196;-56
2022/03/05 11:53:22;;;;;;;7.77;5.60;;;;;;;;;;5053364;28;20189;-58
2022/03/05 11:55:49;;;;;;;7.70;5.77;;;;;;;;;;5053268;28;20206;-57
2022/03/05 11:58:25;;;;;;;8.47;6.07;;;;;;;;;;5053380;28;20722;-57
2022/03/05 12:00:54;;;;;;;8.77;5.80;;;;;;;;;;5053179;28;20199;-57
2022/03/05 12:03:23;;;;;;;7.20;5.83;;;;;;;;;;5052902;28;20314;-57
2022/03/05 12:05:52;;;;;;;7.13;6.03;;;;;;;;;;5053169;28;20196;-57
2022/03/05 12:08:33;;;;;;;8.50;6.13;;;;;;;;;;5053101;28;20250;-58
2022/03/05 12:11:09;;;;;;;7.67;5.80;;;;;;;;;;5053036;28;20602;-56
2022/03/05 12:13:40;;;;;;;7.20;6.00;;;;;;;;;;5053225;28;20269;-58
2022/03/05 12:16:13;;;;;;;8.50;6.03;;;;;;;;;;5052869;28;20227;-56
2022/03/05 12:18:40;;;;;;;7.67;5.60;;;;;;;;;;5052823;28;20243;-56
2022/03/05 12:21:06;;;;;;;8.33;6.40;;;;;;;;;;5052653;28;20196;-57
2022/03/05 12:23:32;;;;;;;7.10;6.40;;;;;;;;;;5052713;28;20683;-56
2022/03/05 12:26:00;;;;;;;8.17;6.27;;;;;;;;;;5052516;28;20277;-57
2022/03/05 12:28:26;;;;;;;7.50;5.80;;;;;;;;;;5052630;28;20313;-57
2022/03/05 12:30:58;;;;;;;7.77;6.47;;;;;;;;;;5052491;28;20599;-55
2022/03/05 12:33:26;;;;;;;7.53;5.90;;;;;;;;;;5052710;28;20208;-56
2022/03/05 12:35:52;;;;;;;9.60;6.43;;;;;;;;;;5052488;28;20204;-56
2022/03/05 12:38:19;;;;;;;8.03;5.67;;;;;;;;;;5052303;28;20339;-57
2022/03/05 12:40:45;;;;;;;8.67;6.37;;;;;;;;;;5052229;28;20204;-57
2022/03/05 12:43:11;;;;;;;7.07;5.83;;;;;;;;;;5052196;28;20200;-57
2022/03/05 12:45:39;;;;;;;6.70;5.77;;;;;;;;;;5052406;28;20589;-58
2022/03/05 12:48:10;;;;;;;7.77;6.37;;;;;;;;;;5052035;28;20215;-57
2022/03/05 12:50:37;;;;;;;6.43;5.83;;;;;;;;;;5052181;28;20307;-57
2022/03/05 12:53:05;;;;;;;8.50;5.83;;;;;;;;;;5052123;28;20244;-58
2022/03/05 12:55:32;;;;;;;7.73;6.20;;;;;;;;;;5052099;28;20197;-57
2022/03/05 12:57:59;;;;;;;7.50;5.57;;;;;;;;;;5051919;28;20346;-57
2022/03/05 13:00:25;;;;;;;6.30;5.70;;;;;;;;;;5052130;28;20200;-56
2022/03/05 13:02:51;;;;;;;7.63;6.20;;;;;;;;;;5051698;28;20207;-57
2022/03/05 13:05:18;;;;;;;7.07;6.03;;;;;;;;;;5052175;28;20282;-57
2022/03/05 13:07:45;;;;;;;8.63;5.90;;;;;;;;;;5051456;28;20254;-57
2022/03/05 13:10:11;;;;;;;7.87;6.03;;;;;;;;;;5052117;28;20636;-57
2022/03/05 13:12:37;;;;;;;8.17;6.17;;;;;;;;;;5051823;28;20198;-57
2022/03/05 13:15:04;;;;;;;7.63;6.47;;;;;;;;;;5051531;28;20242;-57
2022/03/05 13:17:30;;;;;;;7.57;6.27;;;;;;;;;;5051630;28;20208;-56
2022/03/05 13:19:59;;;;;;;8.07;6.13;;;;;;;;;;5051166;28;20196;-56
2022/03/05 13:22:29;;;;;;;7.20;6.07;;;;;;;;;;5051347;28;20196;-57
2022/03/05 13:24:55;;;;;;;7.63;5.80;;;;;;;;;;5051527;28;20230;-57
2022/03/05 13:27:24;;;;;;;6.73;5.73;;;;;;;;;;5051435;28;20243;-58
2022/03/05 13:29:51;;;;;;;6.33;5.67;;;;;;;;;;5051406;28;20554;-57
2022/03/05 13:32:24;;;;;;;6.27;5.23;;;;;;;;;;5049820;28;20784;-58
2022/03/05 13:35:00;;;;;;;6.27;5.60;;;;;;;;;;5051135;28;20208;-57
2022/03/05 13:37:28;;;;;;;7.87;5.63;;;;;;;;;;5051263;28;20231;-58
2022/03/05 13:39:54;;;;;;;8.27;6.00;;;;;;;;;;5051112;28;20196;-58
2022/03/05 13:42:20;;;;;;;6.37;5.73;;;;;;;;;;5051001;28;20226;-58
2022/03/05 13:44:46;;;;;;;7.50;5.73;;;;;;;;;;5051069;28;20227;-57
2022/03/05 13:47:12;;;;;;;9.23;5.70;;;;;;;;;;5051144;28;20207;-57
2022/03/05 13:49:40;;;;;;;8.27;6.47;;;;;;;;;;5051289;28;20211;-57
2022/03/05 13:52:07;;;;;;;7.73;6.17;;;;;;;;;;5049718;28;20211;-57
2022/03/05 13:54:37;;;;;;;7.00;6.07;;;;;;;;;;5050170;28;20197;-58
2022/03/05 13:57:03;;;;;;;6.97;5.97;;;;;;;;;;5050669;28;20283;-57
2022/03/05 13:59:36;;;;;;;7.47;6.20;;;;;;;;;;5051111;28;20207;-57
2022/03/05 14:02:03;;;;;;;6.70;5.73;;;;;;;;;;5050748;28;20663;-56
2022/03/05 14:04:29;;;;;;;6.07;5.47;;;;;;;;;;5050863;28;20235;-57
2022/03/05 14:06:56;;;;;;;7.23;5.67;;;;;;;;;;5050754;28;20536;-57
2022/03/05 14:09:23;;;;;;;6.63;5.63;;;;;;;;;;5051172;28;20196;-58
2022/03/05 14:12:07;;;;;;;6.80;6.00;;;;;;;;;;5051049;28;20299;-56
2022/03/05 14:14:37;;;;;;;6.97;6.27;;;;;;;;;;5050799;28;20200;-58
2022/03/05 14:17:03;;;;;;;6.57;5.90;;;;;;;;;;5051018;28;20188;-57
2022/03/05 14:19:29;;;;;;;6.77;5.70;;;;;;;;;;5050972;28;20295;-57
2022/03/05 14:22:05;;;;;;;9.77;5.83;;;;;;;;;;5050855;28;20242;-57
2022/03/05 14:24:31;;;;;;;10.03;6.57;;;;;;;;;;5051070;28;20250;-57
2022/03/05 14:26:57;;;;;;;6.27;5.33;;;;;;;;;;5038303;28;20238;-57
2022/03/05 14:29:25;;;;;;;6.20;5.60;;;;;;;;;;5031073;28;20205;-58
2022/03/05 14:31:51;;;;;;;6.00;5.40;;;;;;;;;;5030695;28;20228;-57
2022/03/05 14:34:21;;;;;;;6.03;5.13;;;;;;;;;;5029257;28;20667;-58
2022/03/05 14:36:47;;;;;;;6.87;5.07;;;;;;;;;;5030715;28;20625;-57
2022/03/05 14:39:13;;;;;;;6.40;5.60;;;;;;;;;;5030928;28;20203;-57
2022/03/05 14:41:39;;;;;;;6.37;5.57;;;;;;;;;;5031114;28;20297;-57
2022/03/05 14:44:05;;;;;;;7.63;5.93;;;;;;;;;;5030692;28;20257;-56